< < Back
Terminal Aerodrome Forecast


Current Version              Previous Versions:   1  2  3  4  5  6  7  8  9  

Terminal Aerodrome Forecast

545
FTUS44 KBMX 241723
TAFBHM
TAF
KBHM 241723Z 2418/2518 02003KT P6SM FEW070 SCT090
     FM250100 00000KT P6SM SKC
     FM251500 08002KT P6SM FEW090=



Latest METAR

430
SAUS70 KWBC 251200 RRJ
MTRBHM
METAR KBHM 251153Z 00000KT 10SM FEW250 23/17 A3010 RMK AO2 SLP182
T02280172 10244 20222 53016


USA.gov is the U.S. government's official web portal to all federal, state and local government web resources and services.